Stuart, Florida
Current Conditions -  °F | °C
As of 12:47 PM on Monday 24 Nov 2014 (Local Time) from KSUA Reporting Station
Broken Clouds Broken Clouds  
Wind Chill: 86°   Ceiling: 3500
Heat Index: 92°   Visibility: 7mi
Dew Point: 72°   Wind: 12mph
Humidity: 62%   Direction: 190°S
Pressure: 29.97"   Gusts: 20mph
Location:  27.2°N, 80.25°W
Report Text: KSUA 241747Z 19010G17KT 7SM SCT025 BKN035 30/22 A2997
Loading
Personal Weather Stations






























Interactive Weather Map New forecast layout! Learn more

10-Day Weather Forecast

Advertisements
Track Severe Weather on mobile